Time;durP1;ratioP1;P1;durP2;ratioP2;P2;SDS_P1;SDS_P2;PMS_P1;PMS_P2;Temp;Humidity;BMP_temperature;BMP_pressure;BME280_temperature;BME280_humidity;BME280_pressure;Samples;Min_cycle;Max_cycle;Signal;HPM_P1;HPM_P2
2022/10/16 00:01:28;;;;;;;1.90;1.70;;;19.20;97.10;;;19.54;62.05;98544.97;4966225;28;114276;-76
2022/10/16 00:03:57;;;;;;;3.37;1.93;;;19.10;97.10;;;19.53;62.03;98550.94;4970403;28;114586;-74
2022/10/16 00:06:25;;;;;;;1.93;1.37;;;19.10;97.20;;;19.52;62.23;98546.53;4968267;28;124045;-74
2022/10/16 00:08:52;;;;;;;2.50;1.70;;;19.10;97.20;;;19.52;62.28;98538.91;4964510;28;123330;-74
2022/10/16 00:11:36;;;;;;;3.07;1.63;;;19.10;97.20;;;19.50;62.62;98532.88;4971342;28;113852;-75
2022/10/16 00:14:08;;;;;;;4.93;1.67;;;19.10;97.20;;;19.50;62.42;98537.69;4969205;28;114367;-74
2022/10/16 00:16:35;;;;;;;2.50;1.40;;;19.10;97.60;;;19.48;62.05;98542.84;4959041;28;123302;-76
2022/10/16 00:19:02;;;;;;;3.50;1.60;;;19.10;97.30;;;19.48;62.55;98548.44;4966600;28;123489;-73
2022/10/16 00:21:31;;;;;;;1.90;1.37;;;19.00;97.30;;;19.46;62.58;98539.63;4963442;28;114101;-74
2022/10/16 00:24:08;;;;;;;3.43;1.80;;;19.00;97.30;;;19.43;62.67;98536.41;4969502;28;113847;-75
2022/10/16 00:26:37;;;;;;;1.83;1.40;;;19.00;97.30;;;19.42;62.46;98539.56;4956431;28;124010;-74
2022/10/16 00:29:04;;;;;;;1.70;1.40;;;19.00;97.40;;;19.40;62.40;98539.97;4957469;28;124289;-75
2022/10/16 00:31:31;;;;;;;2.33;1.73;;;19.00;97.40;;;19.40;62.49;98536.38;4957223;28;114728;-76
2022/10/16 00:33:58;;;;;;;1.67;1.57;;;19.00;97.40;;;19.39;62.54;98538.34;4958922;28;114584;-77
2022/10/16 00:36:26;;;;;;;1.87;1.60;;;19.00;97.40;;;19.37;62.82;98540.72;4967313;28;123365;-77
2022/10/16 00:38:55;;;;;;;2.93;1.60;;;19.00;97.40;;;19.35;62.86;98543.09;4965501;28;124157;-75
2022/10/16 00:41:24;;;;;;;2.70;1.60;;;18.90;97.40;;;19.34;62.86;98541.47;4968003;28;114414;-77
2022/10/16 00:44:00;;;;;;;1.97;1.80;;;18.90;97.40;;;19.32;62.82;98543.84;4958004;28;114487;-77
2022/10/16 00:46:38;;;;;;;3.40;1.97;;;18.90;97.50;;;19.31;62.83;98549.81;4957344;28;123907;-76
2022/10/16 00:49:19;;;;;;;2.03;1.60;;;18.90;97.50;;;19.27;62.76;98544.16;4965234;28;123863;-76
2022/10/16 00:51:55;;;;;;;2.47;1.70;;;18.90;97.50;;;19.27;62.68;98548.97;4969365;28;114740;-75
2022/10/16 00:54:29;;;;;;;1.97;1.57;;;18.80;97.40;;;19.26;62.94;98536.13;4969760;28;114025;-75
2022/10/16 00:57:02;;;;;;;2.67;1.50;;;18.80;97.50;;;19.26;63.10;98539.72;4966222;28;123666;-76
2022/10/16 00:59:36;;;;;;;4.27;1.33;;;18.80;97.50;;;19.24;62.89;98550.53;4958430;28;123568;-75
2022/10/16 01:02:05;;;;;;;5.40;3.47;;;18.80;97.50;;;19.23;63.01;98545.28;4968455;28;114379;-74
2022/10/16 01:04:42;;;;;;;4.93;3.60;;;18.80;97.50;;;19.22;62.91;98558.50;4962185;28;113985;-75
2022/10/16 01:07:42;;;;;;;4.40;3.60;;;18.80;97.60;;;19.19;62.90;98562.84;4971154;28;122973;-76
2022/10/16 01:10:14;;;;;;;4.10;2.50;;;18.80;97.60;;;19.18;63.19;98557.63;4961763;28;123970;-77
2022/10/16 01:13:01;;;;;;;5.13;2.30;;;18.80;97.70;;;19.17;63.38;98550.41;4969727;28;114164;-75
2022/10/16 01:15:53;;;;;;;2.43;1.70;;;18.80;97.70;;;19.17;63.20;98558.81;4966495;28;113756;-74
2022/10/16 01:18:30;;;;;;;1.73;1.63;;;18.80;97.80;;;19.15;63.50;98572.38;4958542;28;124463;-73
2022/10/16 01:21:05;;;;;;;2.60;1.30;;;18.70;97.70;;;19.15;63.26;98567.56;4968866;28;123597;-76
2022/10/16 01:23:49;;;;;;;1.70;1.40;;;18.70;97.70;;;19.15;63.40;98563.97;4967420;28;115397;-74
2022/10/16 01:27:12;;;;;;;2.87;1.50;;;18.70;97.80;;;19.10;63.24;98550.28;4970737;28;113769;-77
2022/10/16 01:30:04;;;;;;;3.53;1.53;;;18.70;97.70;;;19.10;63.49;98550.28;4951845;28;124106;-76
2022/10/16 01:32:42;;;;;;;2.63;1.90;;;18.70;97.80;;;19.10;63.50;98555.88;4966281;28;123590;-75
2022/10/16 01:35:26;;;;;;;1.90;1.40;;;18.70;97.90;;;19.10;63.50;98555.88;4970781;28;115165;-74
2022/10/16 01:38:07;;;;;;;3.00;1.50;;;20.10;98.50;;;19.07;63.75;98545.44;4963903;28;114609;-74
2022/10/16 01:40:36;;;;;;;2.40;1.57;;;18.70;98.00;;;19.07;63.72;98553.84;4956058;28;123829;-74
2022/10/16 01:43:12;;;;;;;1.80;1.47;;;18.60;98.00;;;19.07;63.69;98557.44;4960347;28;123602;-75
2022/10/16 01:45:42;;;;;;;2.20;1.70;;;18.60;98.00;;;19.05;63.97;98547.78;4957944;28;113983;-75
2022/10/16 01:48:17;;;;;;;2.90;1.53;;;18.60;98.00;;;19.07;63.77;98551.03;4965579;28;113706;-75
2022/10/16 01:50:52;;;;;;;2.07;1.70;;;18.60;98.10;;;19.05;63.89;98547.78;4963987;28;124547;-75
2022/10/16 01:53:20;;;;;;;2.60;1.77;;;18.60;98.10;;;19.06;64.05;98546.63;4965167;28;123718;-74
2022/10/16 01:55:49;;;;;;;2.70;1.57;;;18.60;98.10;;;19.06;63.87;98544.63;4958326;28;114191;-75
2022/10/16 01:58:16;;;;;;;1.60;1.40;;;18.60;98.10;;;19.06;63.75;98544.63;4964572;28;113979;-74
2022/10/16 02:00:45;;;;;;;1.70;1.60;;;18.60;98.10;;;19.05;63.81;98545.84;4964190;28;123799;-75
2022/10/16 02:03:15;;;;;;;1.57;1.30;;;18.60;98.10;;;19.06;63.95;98543.84;4959556;28;124290;-77
2022/10/16 02:05:52;;;;;;;3.07;2.60;;;18.60;98.10;;;19.06;63.95;98541.84;4965332;28;115438;-76
2022/10/16 02:08:22;;;;;;;4.17;3.00;;;18.60;98.20;;;19.06;64.11;98539.03;4946803;28;113301;-75
2022/10/16 02:10:50;;;;;;;5.07;3.10;;;18.60;98.20;;;19.07;63.99;98545.44;4965810;28;124753;-75
2022/10/16 02:13:39;;;;;;;4.70;3.10;;;18.60;98.20;;;19.06;64.16;98527.03;4961162;28;124374;-75
2022/10/16 02:16:06;;;;;;;3.00;1.80;;;18.60;98.20;;;19.06;64.11;98538.22;4969611;28;114689;-75
2022/10/16 02:18:33;;;;;;;2.63;1.50;;;18.60;98.20;;;19.06;63.99;98543.84;4958709;28;115293;-76
2022/10/16 02:21:04;;;;;;;1.83;1.47;;;18.60;98.30;;;19.05;64.15;98545.00;4965923;28;124596;-79
2022/10/16 02:24:11;;;;;;;3.13;1.53;;;18.60;98.30;;;19.05;64.21;98547.78;4959029;28;123515;-75
2022/10/16 02:26:52;;;;;;;1.77;1.40;;;18.60;98.30;;;19.04;64.04;98549.00;4963791;28;113438;-76
2022/10/16 02:29:25;;;;;;;2.40;1.23;;;18.60;98.30;;;19.05;64.30;98553.41;4951802;28;113991;-75
2022/10/16 02:31:58;;;;;;;1.57;1.33;;;18.60;98.30;;;19.05;64.17;98542.19;4963338;28;125075;-75
2022/10/16 02:34:27;;;;;;;2.67;1.87;;;18.60;98.30;;;19.06;64.26;98543.84;4958146;28;123953;-74
2022/10/16 02:36:55;;;;;;;1.47;1.37;;;18.60;98.30;;;19.06;64.33;98538.22;4945098;28;113980;-75
2022/10/16 02:39:22;;;;;;;1.70;1.30;;;18.60;98.30;;;19.06;63.99;98538.22;4959014;28;114999;-74
2022/10/16 02:41:52;;;;;;;1.50;1.10;;;18.60;98.30;;;19.06;63.66;98539.03;4954963;28;124228;-74
2022/10/16 02:44:19;;;;;;;2.07;1.63;;;18.60;98.30;;;19.07;64.02;98542.63;4958412;28;124436;-74
2022/10/16 02:46:45;;;;;;;2.47;1.70;;;18.60;98.30;;;19.07;63.83;98542.63;4945947;28;114676;-74
2022/10/16 02:49:12;;;;;;;1.50;1.40;;;18.60;98.20;;;19.06;64.07;98543.84;4956750;28;114008;-75
2022/10/16 02:51:38;;;;;;;2.00;1.20;;;18.60;98.20;;;19.07;63.96;98540.63;4956909;28;124183;-74
2022/10/16 02:54:05;;;;;;;1.60;1.40;;;18.70;98.30;;;19.07;63.95;98551.84;4957184;28;123544;-75
2022/10/16 02:56:31;;;;;;;1.77;1.43;;;18.60;98.20;;;19.08;63.67;98549.88;4953912;28;114197;-75
2022/10/16 02:58:58;;;;;;;1.80;1.40;;;18.60;98.20;;;19.08;63.90;98552.66;4960709;28;114072;-74
2022/10/16 03:01:24;;;;;;;3.53;1.70;;;18.60;98.20;;;19.08;63.74;98559.06;4959924;28;124604;-76
2022/10/16 03:03:51;;;;;;;1.60;1.20;;;18.60;98.10;;;19.09;63.74;98576.69;4965100;28;124327;-75
2022/10/16 03:06:17;;;;;;;1.53;1.20;;;18.60;98.10;;;19.08;64.07;98559.06;4967186;28;114780;-75
2022/10/16 03:08:44;;;;;;;1.50;1.30;;;18.60;98.10;;;19.08;63.83;98555.47;4969367;28;114014;-75
2022/10/16 03:11:10;;;;;;;3.30;1.23;;;18.60;98.10;;;19.08;63.78;98569.47;4959220;28;123919;-76
2022/10/16 03:13:37;;;;;;;1.20;1.10;;;18.60;98.10;;;19.07;63.79;98562.25;4947377;28;124957;-75
2022/10/16 03:16:03;;;;;;;1.63;1.40;;;18.60;98.10;;;19.05;63.87;98565.44;4964124;28;114507;-75
2022/10/16 03:18:30;;;;;;;1.93;1.53;;;18.60;98.10;;;19.06;63.52;98560.63;4966896;28;113238;-75
2022/10/16 03:20:57;;;;;;;1.80;1.20;;;18.60;98.10;;;19.04;63.84;98560.19;4956938;28;124274;-75
2022/10/16 03:23:23;;;;;;;1.70;1.37;;;18.60;98.10;;;19.02;63.95;98563.38;4953510;28;123866;-75
2022/10/16 03:25:50;;;;;;;1.53;1.27;;;18.60;98.10;;;19.04;63.66;98571.41;4967054;28;114286;-76
2022/10/16 03:28:16;;;;;;;1.40;1.20;;;18.60;98.10;;;19.02;63.96;98568.16;4964407;28;114595;-75
2022/10/16 03:30:43;;;;;;;1.90;1.50;;;18.60;98.20;;;19.01;63.86;98566.53;4964970;28;123583;-78
2022/10/16 03:33:10;;;;;;;1.50;1.20;;;18.60;98.20;;;19.00;64.07;98567.75;4967383;28;124493;-74
2022/10/16 03:35:37;;;;;;;2.40;1.37;;;18.60;98.20;;;18.99;64.19;98566.91;4955107;28;114244;-76
2022/10/16 03:38:03;;;;;;;2.03;1.40;;;18.60;98.30;;;18.97;64.05;98566.50;4962769;28;114100;-75
2022/10/16 03:40:32;;;;;;;1.43;1.20;;;18.60;98.30;;;18.96;64.06;98568.47;4950083;28;124658;-75
2022/10/16 03:42:59;;;;;;;1.90;1.40;;;18.50;98.20;;;18.96;64.29;98568.47;4964625;28;124133;-77
2022/10/16 03:45:26;;;;;;;1.90;1.30;;;18.50;98.30;;;18.95;64.14;98563.25;4964270;28;114348;-75
2022/10/16 03:47:53;;;;;;;2.10;1.27;;;18.50;98.30;;;18.94;64.36;98568.06;4953960;28;114024;-75
2022/10/16 03:50:19;;;;;;;1.77;1.47;;;18.50;98.30;;;18.94;64.46;98567.22;4959152;28;124220;-76
2022/10/16 03:52:46;;;;;;;5.70;1.50;;;18.50;98.40;;;18.93;64.47;98571.22;4965905;28;123334;-75
2022/10/16 03:55:12;;;;;;;2.33;1.70;;;18.50;98.40;;;18.93;64.66;98565.63;4955953;28;115179;-75
2022/10/16 03:57:39;;;;;;;1.70;1.50;;;18.50;98.40;;;18.92;64.41;98576.00;4959589;28;115429;-76
2022/10/16 04:00:06;;;;;;;5.93;1.70;;;19.40;98.80;;;18.90;64.58;98575.56;4958556;28;124193;-75
2022/10/16 04:02:32;;;;;;;2.50;1.80;;;18.50;98.50;;;18.89;64.50;98573.16;4959772;28;124000;-75
2022/10/16 04:04:59;;;;;;;1.70;1.60;;;18.50;98.50;;;18.89;64.44;98567.56;4964973;28;114262;-75
2022/10/16 04:07:25;;;;;;;3.67;1.70;;;18.40;98.50;;;18.87;64.73;98570.72;4965844;28;113937;-75
2022/10/16 04:09:52;;;;;;;2.00;1.43;;;18.50;98.50;;;18.87;64.88;98576.31;4959001;28;124310;-76
2022/10/16 04:12:18;;;;;;;1.97;1.70;;;18.50;98.50;;;18.85;64.80;98578.69;4963165;28;123776;-78
2022/10/16 04:14:45;;;;;;;3.10;1.67;;;18.40;98.50;;;18.85;64.61;98572.28;4975452;28;113539;-76
2022/10/16 04:17:11;;;;;;;2.10;1.43;;;18.40;98.50;;;18.83;64.58;98575.44;4954810;28;114596;-75
2022/10/16 04:19:38;;;;;;;2.50;1.57;;;18.40;98.60;;;18.83;64.71;98575.44;4958793;28;124110;-76
2022/10/16 04:22:04;;;;;;;2.57;1.60;;;18.40;98.60;;;18.82;64.91;98571.03;4950282;28;122998;-76
2022/10/16 04:24:31;;;;;;;3.30;2.00;;;18.40;98.60;;;18.82;64.70;98573.03;4967069;28;112683;-78
2022/10/16 04:26:57;;;;;;;2.07;1.30;;;18.40;98.60;;;18.80;64.95;98567.78;4959501;28;114104;-76
2022/10/16 04:29:24;;;;;;;3.20;1.93;;;18.40;98.70;;;18.81;64.86;98572.22;4961589;28;124112;-77
2022/10/16 04:31:50;;;;;;;1.90;1.50;;;18.40;98.70;;;18.80;64.99;98572.59;4954100;28;122765;-76
2022/10/16 04:34:17;;;;;;;3.03;1.30;;;18.40;98.70;;;18.79;64.95;98573.78;4960135;28;113378;-77
2022/10/16 04:36:43;;;;;;;3.03;1.33;;;18.40;98.70;;;18.77;65.00;98574.94;4962222;28;114106;-76
2022/10/16 04:39:10;;;;;;;1.30;1.20;;;18.40;98.70;;;18.76;65.03;98576.13;4959513;28;124585;-78
2022/10/16 04:41:36;;;;;;;2.03;1.50;;;18.30;98.70;;;18.75;64.89;98574.53;4953205;28;123402;-77
2022/10/16 04:44:03;;;;;;;1.93;1.70;;;18.30;98.70;;;18.75;64.99;98580.13;4967962;28;115182;-77
2022/10/16 04:46:29;;;;;;;1.50;1.17;;;18.30;99.00;;;18.74;65.09;98572.88;4962033;28;114842;-76
2022/10/16 04:48:55;;;;;;;1.90;1.30;;;18.30;98.70;;;18.74;65.10;98584.09;4963379;28;125430;-75
2022/10/16 04:51:22;;;;;;;2.07;1.43;;;18.30;98.70;;;18.73;64.89;98588.03;4957726;28;123629;-77
2022/10/16 04:53:49;;;;;;;3.57;1.40;;;18.30;98.70;;;18.73;64.95;98604.03;4960979;28;113956;-75
2022/10/16 04:56:15;;;;;;;3.27;1.93;;;18.30;98.80;;;18.72;65.09;98597.59;4971385;28;112213;-77
2022/10/16 04:58:42;;;;;;;1.60;1.20;;;18.30;98.80;;;18.73;64.99;98604.03;4958896;28;124073;-76
2022/10/16 05:01:08;;;;;;;1.80;1.50;;;18.30;98.80;;;18.71;64.98;98589.59;4969529;28;123959;-77
2022/10/16 05:03:35;;;;;;;1.87;1.40;;;18.30;98.80;;;18.72;65.01;98608.00;4962828;28;114294;-75
2022/10/16 05:06:03;;;;;;;6.40;1.40;;;18.30;98.80;;;18.72;65.34;98602.41;4965465;28;114783;-75
2022/10/16 05:08:30;;;;;;;2.70;1.80;;;18.30;98.80;;;18.71;65.17;98611.97;4968983;28;124012;-76
2022/10/16 05:10:57;;;;;;;2.60;1.57;;;18.30;98.80;;;18.71;64.93;98606.38;4969276;28;123717;-75
2022/10/16 05:13:23;;;;;;;1.80;1.60;;;18.40;98.90;;;18.72;65.02;98605.19;4972575;28;114446;-75
2022/10/16 05:15:52;;;;;;;3.53;1.70;;;18.20;98.80;;;18.71;65.36;98604.41;4971253;28;113366;-78
2022/10/16 05:18:18;;;;;;;2.00;1.80;;;18.30;98.90;;;18.70;65.12;98607.59;4969176;28;124509;-78
2022/10/16 05:20:45;;;;;;;1.83;1.50;;;18.20;98.80;;;18.71;65.17;98606.38;4963089;28;123860;-80
2022/10/16 05:23:11;;;;;;;2.37;1.37;;;18.30;98.90;;;18.72;65.28;98602.41;4966127;28;115338;-74
2022/10/16 05:25:38;;;;;;;9.63;1.50;;;18.30;98.90;;;18.70;65.28;98601.97;4969102;28;114008;-75
2022/10/16 05:28:04;;;;;;;2.30;1.67;;;18.20;98.90;;;18.69;65.24;98603.94;4969428;28;124539;-75
2022/10/16 05:30:31;;;;;;;3.10;2.10;;;18.20;98.90;;;18.69;65.32;98600.34;4968412;28;123700;-75
2022/10/16 05:32:57;;;;;;;2.10;1.60;;;18.20;98.90;;;18.67;65.36;98605.50;4966969;28;115240;-75
2022/10/16 05:35:24;;;;;;;1.77;1.47;;;18.20;98.90;;;18.68;65.46;98612.72;4969673;28;114113;-75
2022/10/16 05:37:50;;;;;;;3.17;1.67;;;18.20;98.90;;;18.66;65.34;98604.69;4967018;28;124202;-74
2022/10/16 05:40:17;;;;;;;1.63;1.23;;;18.20;99.00;;;18.66;65.47;98612.28;4957465;28;123908;-75
2022/10/16 05:42:43;;;;;;;1.77;1.50;;;18.20;99.00;;;18.64;65.50;98618.25;4967701;28;114307;-75
2022/10/16 05:45:11;;;;;;;2.80;1.60;;;18.20;99.00;;;18.63;65.35;98622.22;4963910;28;114066;-75
2022/10/16 05:47:38;;;;;;;3.27;1.70;;;18.20;99.00;;;18.62;65.37;98623.44;4939155;28;123985;-75
2022/10/16 05:50:06;;;;;;;3.40;1.83;;;17.90;98.80;;;18.62;65.41;98620.63;4970378;28;124114;-77
2022/10/16 05:52:32;;;;;;;1.70;1.40;;;18.20;99.00;;;18.62;65.26;98617.00;4969543;28;114390;-75
2022/10/16 05:54:58;;;;;;;2.50;1.70;;;18.20;99.00;;;18.60;65.31;98622.97;4965110;28;113911;-78
2022/10/16 05:57:25;;;;;;;4.17;1.60;;;18.20;99.00;;;18.61;65.24;98629.38;4968741;28;124295;-75
2022/10/16 05:59:51;;;;;;;1.80;1.50;;;18.20;99.00;;;18.60;65.35;98625.78;4964803;28;123338;-77
2022/10/16 06:02:18;;;;;;;3.20;1.43;;;18.20;99.00;;;18.60;65.18;98625.78;4965485;28;114322;-75
2022/10/16 06:04:44;;;;;;;2.20;1.67;;;18.20;99.00;;;18.59;65.47;98637.31;4954764;28;113835;-76
2022/10/16 06:07:11;;;;;;;1.97;1.77;;;18.10;99.00;;;18.60;65.35;98636.16;4956889;28;124102;-75
2022/10/16 06:09:37;;;;;;;4.13;1.73;;;18.10;98.90;;;18.59;65.40;98642.91;4966870;28;125318;-76
2022/10/16 06:12:04;;;;;;;2.13;1.80;;;18.10;99.00;;;18.60;65.40;98641.75;4961909;28;114518;-75
2022/10/16 06:14:31;;;;;;;2.63;1.80;;;18.10;99.00;;;18.60;65.32;98644.56;4972413;28;114142;-75
2022/10/16 06:16:57;;;;;;;5.33;1.90;;;18.10;99.00;;;18.61;65.47;98648.97;4952679;28;123048;-75
2022/10/16 06:19:24;;;;;;;2.83;1.77;;;18.10;99.10;;;18.64;65.57;98649.03;4975073;28;123104;-75
2022/10/16 06:21:50;;;;;;;3.70;1.70;;;18.10;99.10;;;18.68;65.62;98651.91;4962502;28;115317;-75
2022/10/16 06:24:17;;;;;;;3.33;1.90;;;18.20;99.20;;;18.69;65.50;98645.94;4961265;28;114875;-77
2022/10/16 06:26:43;;;;;;;5.80;2.20;;;18.20;99.20;;;18.71;65.50;98653.97;4967500;28;124048;-77
2022/10/16 06:29:09;;;;;;;3.07;1.60;;;18.20;99.20;;;18.70;65.51;98655.16;4964749;28;121840;-77
2022/10/16 06:31:36;;;;;;;4.37;2.27;;;18.20;99.20;;;18.70;65.50;98657.97;4959578;28;114500;-77
2022/10/16 06:34:04;;;;;;;2.50;1.90;;;18.20;99.20;;;18.69;65.59;98653.53;4964385;28;113758;-76
2022/10/16 06:36:30;;;;;;;3.77;2.10;;;18.20;99.20;;;18.69;65.40;98659.13;4969547;28;124560;-76
2022/10/16 06:38:57;;;;;;;3.80;2.20;;;18.20;99.20;;;18.68;65.87;98651.91;4960457;28;123780;-75
2022/10/16 06:41:23;;;;;;;4.67;2.10;;;18.20;99.30;;;18.69;65.79;98656.31;4964407;28;113991;-75
2022/10/16 06:43:52;;;;;;;2.90;1.70;;;18.20;99.30;;;18.68;65.95;98663.09;4969878;28;113057;-75
2022/10/16 06:46:23;;;;;;;2.27;1.63;;;18.20;99.30;;;18.68;65.42;98669.50;4950375;28;123804;-76
2022/10/16 06:48:50;;;;;;;4.00;2.27;;;18.20;99.30;;;18.69;65.77;98676.72;4952336;28;124386;-77
2022/10/16 06:51:22;;;;;;;2.70;1.50;;;18.20;99.30;;;18.74;65.74;98678.41;4949348;28;114341;-77
2022/10/16 06:53:53;;;;;;;2.40;1.77;;;18.20;99.30;;;18.74;65.55;98676.44;4950988;28;114276;-77
2022/10/16 06:56:25;;;;;;;2.33;1.70;;;18.30;99.30;;;18.75;65.33;98682.84;4952092;28;124074;-75
2022/10/16 06:58:53;;;;;;;1.90;1.50;;;18.30;99.20;;;18.76;65.40;98681.69;4933668;28;123348;-79
2022/10/16 07:01:23;;;;;;;2.33;1.80;;;18.30;99.20;;;18.78;65.60;98687.72;4956914;28;114142;-77
2022/10/16 07:03:50;;;;;;;2.33;1.30;;;18.30;99.20;;;18.79;65.24;98683.75;4949439;28;114030;-77
2022/10/16 07:06:20;;;;;;;2.00;1.40;;;18.30;99.10;;;18.81;65.54;98684.19;4949431;28;124478;-76
2022/10/16 07:08:48;;;;;;;2.23;1.50;;;18.30;99.10;;;18.85;64.88;98695.44;4949575;28;123707;-75
2022/10/16 07:11:18;;;;;;;2.50;1.57;;;18.40;99.00;;;18.88;65.15;98694.69;4961512;28;115136;-76
2022/10/16 07:13:46;;;;;;;3.30;1.90;;;18.40;99.10;;;18.93;64.98;98703.59;4952610;28;114811;-76
2022/10/16 07:16:19;;;;;;;8.90;2.07;;;18.40;99.10;;;19.00;64.97;98708.56;4951198;28;124539;-78
2022/10/16 07:18:48;;;;;;;7.23;2.00;;;18.40;99.10;;;19.04;64.83;98719.81;4959908;28;123796;-75
2022/10/16 07:21:20;;;;;;;4.60;1.50;;;18.50;99.00;;;19.07;64.33;98716.25;4958256;28;114193;-76
2022/10/16 07:23:55;;;;;;;2.10;1.40;;;18.50;98.90;;;19.09;63.78;98719.50;4946148;28;113823;-75
2022/10/16 07:26:23;;;;;;;1.67;1.30;;;18.50;98.70;;;19.11;63.96;98726.34;4957965;28;123590;-75
2022/10/16 07:28:50;;;;;;;6.40;1.53;;;18.50;98.60;;;19.14;63.89;98724.81;4960567;28;122815;-75
2022/10/16 07:31:21;;;;;;;3.37;1.50;;;18.60;98.60;;;19.17;63.74;98735.25;4957027;28;114391;-76
2022/10/16 07:33:48;;;;;;;3.23;1.33;;;18.60;98.60;;;19.18;63.67;98737.69;4962870;28;114034;-74
2022/10/16 07:36:18;;;;;;;1.80;1.33;;;18.60;98.40;;;19.19;63.49;98744.91;4958332;28;124046;-77
2022/10/16 07:38:45;;;;;;;1.63;1.30;;;18.70;98.40;;;19.21;63.48;98744.56;4937798;28;123353;-75
2022/10/16 07:41:16;;;;;;;3.10;1.50;;;18.60;98.20;;;19.20;63.38;98729.72;4953470;28;114122;-74
2022/10/16 07:43:48;;;;;;;3.30;1.50;;;18.70;98.20;;;19.22;63.16;98737.75;4960905;28;114488;-76
2022/10/16 07:46:16;;;;;;;1.43;1.20;;;18.70;98.10;;;19.22;63.32;98737.75;4945371;28;122574;-74
2022/10/16 07:48:45;;;;;;;3.83;1.83;;;18.70;98.10;;;19.25;62.97;98739.00;4956663;28;124034;-73
2022/10/16 07:51:13;;;;;;;7.53;1.87;;;18.70;98.00;;;19.27;62.89;98742.25;4959247;28;114268;-74
2022/10/16 07:53:40;;;;;;;3.13;1.40;;;18.70;98.00;;;19.27;62.69;98748.66;4958841;28;113929;-76
2022/10/16 07:56:07;;;;;;;3.47;1.63;;;18.80;97.90;;;19.27;62.60;98743.06;4962859;28;124422;-74
2022/10/16 07:58:37;;;;;;;4.90;1.60;;;18.80;97.90;;;19.31;62.85;98752.31;4961909;28;125037;-74
2022/10/16 08:01:06;;;;;;;3.37;1.60;;;18.80;97.80;;;19.32;62.89;98753.97;4949988;28;114316;-74
2022/10/16 08:03:33;;;;;;;2.27;1.47;;;18.40;97.60;;;19.36;62.60;98754.81;4959222;28;114865;-76
2022/10/16 08:06:01;;;;;;;3.37;1.60;;;18.80;97.80;;;19.40;62.56;98757.72;4961313;28;124043;-74
2022/10/16 08:08:28;;;;;;;2.17;1.47;;;18.90;97.80;;;19.41;62.70;98757.31;4962452;28;123908;-76
2022/10/16 08:10:55;;;;;;;2.90;1.80;;;18.90;97.80;;;19.47;62.39;98755.00;4963014;28;113696;-75
2022/10/16 08:13:21;;;;;;;2.30;1.70;;;18.90;97.70;;;19.51;62.46;98755.09;4952279;28;113258;-74
2022/10/16 08:15:48;;;;;;;2.13;1.53;;;19.00;97.70;;;19.54;62.04;98751.53;4963513;28;123362;-76
2022/10/16 08:18:15;;;;;;;2.73;1.60;;;19.00;97.60;;;19.59;62.13;98751.22;4959535;28;123617;-75
2022/10/16 08:20:43;;;;;;;2.40;1.60;;;19.00;97.60;;;19.64;61.82;98753.72;4959751;28;114088;-74
2022/10/16 08:23:12;;;;;;;2.63;1.80;;;19.10;97.60;;;19.70;62.04;98754.25;4958657;28;114123;-75
2022/10/16 08:25:40;;;;;;;3.00;1.80;;;19.10;97.60;;;19.76;62.06;98763.97;4962195;28;123379;-78
2022/10/16 08:28:10;;;;;;;1.83;1.40;;;19.10;97.50;;;19.82;61.60;98768.88;4962869;28;123933;-73
2022/10/16 08:30:37;;;;;;;3.97;1.53;;;19.20;97.50;;;19.88;61.66;98777.78;4961861;28;114121;-76
2022/10/16 08:33:04;;;;;;;1.70;1.57;;;19.30;97.40;;;19.93;61.36;98779.44;4964079;28;114179;-75
2022/10/16 08:35:31;;;;;;;3.13;1.53;;;19.30;97.30;;;19.98;61.47;98784.75;4951247;28;123099;-78
2022/10/16 08:37:57;;;;;;;2.10;1.60;;;19.40;97.30;;;20.03;61.34;98778.81;4964753;28;122795;-76
2022/10/16 08:40:33;;;;;;;3.53;1.60;;;19.40;97.20;;;20.06;61.02;98798.50;4959166;28;114348;-74
2022/10/16 08:43:40;;;;;;;3.00;1.30;;;19.50;97.10;;;20.08;60.71;98784.91;4964590;28;115431;-75
2022/10/16 08:46:56;;;;;;;1.83;1.30;;;19.50;97.00;;;20.07;60.68;98785.31;4963257;28;123884;-75
2022/10/16 08:49:24;;;;;;;4.13;1.30;;;19.50;96.80;;;20.09;60.65;98782.91;4958815;28;122645;-77
2022/10/16 08:51:51;;;;;;;1.83;1.40;;;19.50;96.80;;;20.11;60.09;98783.34;4952745;28;115235;-74
2022/10/16 08:54:40;;;;;;;1.90;1.50;;;19.60;96.70;;;20.14;60.17;98788.22;4961070;28;115425;-74
2022/10/16 08:57:26;;;;;;;1.93;1.70;;;19.60;96.60;;;20.16;60.45;98785.84;4965836;28;125011;-75
2022/10/16 08:59:59;;;;;;;3.30;1.60;;;19.70;96.60;;;20.21;60.04;98790.34;4961817;28;124406;-76
2022/10/16 09:02:36;;;;;;;4.20;1.53;;;19.60;96.60;;;20.24;59.90;98796.00;4955004;28;114310;-74
2022/10/16 09:05:48;;;;;;;4.70;2.03;;;19.70;96.50;;;20.22;60.21;98792.75;4953017;28;113004;-74
2022/10/16 09:08:51;;;;;;;1.50;1.30;;;19.70;96.40;;;20.24;60.15;98793.19;4958703;28;122921;-77
2022/10/16 09:11:25;;;;;;;3.83;1.60;;;19.80;96.40;;;20.29;59.67;98789.25;4949883;28;123715;-75
2022/10/16 09:14:36;;;;;;;2.23;1.33;;;19.80;96.40;;;20.33;59.87;98789.28;4949753;28;114304;-75
2022/10/16 09:17:24;;;;;;;4.30;1.30;;;19.80;96.30;;;20.39;59.65;98776.53;4953315;28;114663;-74
2022/10/16 09:20:25;;;;;;;1.70;1.50;;;19.90;96.40;;;20.45;59.94;98791.88;4968673;28;123075;-75
2022/10/16 09:23:15;;;;;;;1.37;1.20;;;19.90;96.30;;;20.50;59.71;98800.00;4948707;28;123875;-74
2022/10/16 09:25:47;;;;;;;1.97;1.20;;;20.00;96.20;;;20.57;59.52;98796.50;4951517;28;115014;-75
2022/10/16 09:28:14;;;;;;;2.70;1.60;;;20.00;96.20;;;20.64;59.32;98805.81;4962405;28;114440;-74
2022/10/16 09:30:41;;;;;;;5.00;1.60;;;20.10;96.20;;;20.68;58.88;98809.47;4948141;28;123974;-75
2022/10/16 09:33:11;;;;;;;3.00;1.50;;;20.20;96.10;;;20.76;58.82;98806.78;4951116;28;124432;-74
2022/10/16 09:35:51;;;;;;;1.80;1.50;;;20.20;96.00;;;20.78;58.96;98807.22;4950525;28;114182;-76
2022/10/16 09:38:37;;;;;;;3.17;1.30;;;20.30;95.90;;;20.82;58.51;98811.69;4946116;28;114562;-74
2022/10/16 09:41:25;;;;;;;1.43;1.20;;;20.30;95.80;;;20.86;58.25;98811.72;4959311;28;124120;-76
2022/10/16 09:44:00;;;;;;;3.07;1.13;;;20.30;95.60;;;20.89;58.30;98808.16;4949017;28;124567;-75
2022/10/16 09:46:31;;;;;;;2.10;1.40;;;20.40;95.50;;;20.92;57.96;98818.63;4948544;28;115767;-75
2022/10/16 09:49:02;;;;;;;1.27;1.17;;;20.40;95.40;;;20.96;57.59;98819.50;4965424;28;114708;-74
2022/10/16 09:51:35;;;;;;;1.50;1.30;;;20.50;95.40;;;21.01;57.75;98807.94;4965464;28;124634;-77
2022/10/16 09:54:14;;;;;;;4.90;1.70;;;20.50;95.30;;;21.06;57.41;98815.97;4964087;28;123631;-75
2022/10/16 09:56:41;;;;;;;1.73;1.27;;;20.50;95.20;;;21.12;57.34;98817.28;4969551;28;114667;-75
2022/10/16 09:59:28;;;;;;;1.77;1.67;;;20.60;95.20;;;21.18;57.68;98810.13;4963336;28;113437;-75
2022/10/16 10:01:55;;;;;;;2.70;1.40;;;20.70;95.10;;;21.28;57.56;98813.44;4964826;28;124143;-74
2022/10/16 10:04:23;;;;;;;2.20;1.30;;;20.70;95.10;;;21.34;57.21;98817.53;4966859;28;123882;-74
2022/10/16 10:06:56;;;;;;;5.53;1.57;;;20.70;95.10;;;21.42;57.05;98824.88;4968513;28;114263;-74
2022/10/16 10:09:27;;;;;;;2.00;1.50;;;20.90;95.00;;;21.49;56.96;98821.31;4964767;28;114362;-73
2022/10/16 10:12:02;;;;;;;2.83;1.43;;;20.90;94.90;;;21.57;56.85;98826.66;4961281;28;125013;-73
2022/10/16 10:14:39;;;;;;;2.17;1.53;;;21.00;94.80;;;21.65;56.12;98835.97;4958325;28;124092;-74
2022/10/16 10:17:06;;;;;;;15.03;1.67;;;21.10;94.70;;;21.73;56.43;98829.22;4954444;28;114285;-73
2022/10/16 10:19:47;;;;;;;1.50;1.37;;;21.10;94.60;;;21.81;56.36;98839.34;4969460;28;113618;-74
2022/10/16 10:22:36;;;;;;;1.70;1.40;;;21.30;94.60;;;21.91;55.80;98831.41;4967728;28;123343;-73
2022/10/16 10:25:34;;;;;;;6.53;1.30;;;21.30;94.50;;;21.99;55.55;98833.06;4965919;28;123398;-73
2022/10/16 10:28:23;;;;;;;2.17;1.33;;;21.40;94.30;;;22.08;54.82;98830.72;4956421;28;113519;-74
2022/10/16 10:31:02;;;;;;;2.17;1.60;;;21.50;94.10;;;22.17;54.52;98833.25;4951825;28;114668;-74